sensor_id;sensor_type;location;lat;lon;timestamp;temperature;humidity
38265;DHT22;24062;47.480;8.768;2023-05-23T00:01:58;15.30;90.50
38265;DHT22;24062;47.480;8.768;2023-05-23T00:04:27;15.20;90.40
38265;DHT22;24062;47.480;8.768;2023-05-23T00:06:55;15.20;90.60
38265;DHT22;24062;47.480;8.768;2023-05-23T00:09:22;15.20;90.70
38265;DHT22;24062;47.480;8.768;2023-05-23T00:11:49;15.10;90.70
38265;DHT22;24062;47.480;8.768;2023-05-23T00:14:16;15.10;90.80
38265;DHT22;24062;47.480;8.768;2023-05-23T00:16:44;15.10;90.80
38265;DHT22;24062;47.480;8.768;2023-05-23T00:19:14;15.00;90.90
38265;DHT22;24062;47.480;8.768;2023-05-23T00:21:45;15.00;91.00
38265;DHT22;24062;47.480;8.768;2023-05-23T00:24:13;15.00;91.00
38265;DHT22;24062;47.480;8.768;2023-05-23T00:26:43;15.00;91.20
38265;DHT22;24062;47.480;8.768;2023-05-23T00:29:10;15.00;91.40
38265;DHT22;24062;47.480;8.768;2023-05-23T00:31:40;14.90;91.40
38265;DHT22;24062;47.480;8.768;2023-05-23T00:34:07;14.90;91.60
38265;DHT22;24062;47.480;8.768;2023-05-23T00:36:34;14.90;91.60
38265;DHT22;24062;47.480;8.768;2023-05-23T00:39:03;14.80;91.70
38265;DHT22;24062;47.480;8.768;2023-05-23T00:41:30;14.80;91.80
38265;DHT22;24062;47.480;8.768;2023-05-23T00:43:57;14.80;92.00
38265;DHT22;24062;47.480;8.768;2023-05-23T00:46:25;14.70;92.10
38265;DHT22;24062;47.480;8.768;2023-05-23T00:48:53;14.70;92.20
38265;DHT22;24062;47.480;8.768;2023-05-23T00:51:20;14.60;92.40
38265;DHT22;24062;47.480;8.768;2023-05-23T00:53:48;14.50;92.50
38265;DHT22;24062;47.480;8.768;2023-05-23T00:56:17;14.50;92.80
38265;DHT22;24062;47.480;8.768;2023-05-23T00:58:44;14.50;93.00
38265;DHT22;24062;47.480;8.768;2023-05-23T01:01:12;14.40;93.10
38265;DHT22;24062;47.480;8.768;2023-05-23T01:03:40;14.40;93.10
38265;DHT22;24062;47.480;8.768;2023-05-23T01:06:10;14.40;93.10
38265;DHT22;24062;47.480;8.768;2023-05-23T01:08:37;14.40;93.10
38265;DHT22;24062;47.480;8.768;2023-05-23T01:11:10;14.40;93.10
38265;DHT22;24062;47.480;8.768;2023-05-23T01:13:46;14.30;93.30
38265;DHT22;24062;47.480;8.768;2023-05-23T01:16:18;14.30;93.50
38265;DHT22;24062;47.480;8.768;2023-05-23T01:18:57;14.20;93.70
38265;DHT22;24062;47.480;8.768;2023-05-23T01:21:27;14.10;94.00
38265;DHT22;24062;47.480;8.768;2023-05-23T01:24:20;14.00;94.30
38265;DHT22;24062;47.480;8.768;2023-05-23T01:27:02;14.00;94.80
38265;DHT22;24062;47.480;8.768;2023-05-23T01:29:36;13.90;94.90
38265;DHT22;24062;47.480;8.768;2023-05-23T01:32:07;14.00;95.00
38265;DHT22;24062;47.480;8.768;2023-05-23T01:34:36;14.00;94.90
38265;DHT22;24062;47.480;8.768;2023-05-23T01:37:07;14.00;94.80
38265;DHT22;24062;47.480;8.768;2023-05-23T01:39:35;14.00;94.90
38265;DHT22;24062;47.480;8.768;2023-05-23T01:42:02;14.00;95.00
38265;DHT22;24062;47.480;8.768;2023-05-23T01:44:31;13.90;95.10
38265;DHT22;24062;47.480;8.768;2023-05-23T01:47:00;13.90;95.20
38265;DHT22;24062;47.480;8.768;2023-05-23T01:49:28;13.90;95.30
38265;DHT22;24062;47.480;8.768;2023-05-23T01:51:57;13.90;95.30
38265;DHT22;24062;47.480;8.768;2023-05-23T01:54:25;13.90;95.40
38265;DHT22;24062;47.480;8.768;2023-05-23T01:56:55;14.00;95.40
38265;DHT22;24062;47.480;8.768;2023-05-23T01:59:22;14.00;95.40
38265;DHT22;24062;47.480;8.768;2023-05-23T02:01:51;14.00;95.40
38265;DHT22;24062;47.480;8.768;2023-05-23T02:04:18;14.00;95.40
38265;DHT22;24062;47.480;8.768;2023-05-23T02:06:45;14.00;95.50
38265;DHT22;24062;47.480;8.768;2023-05-23T02:09:12;14.00;95.60
38265;DHT22;24062;47.480;8.768;2023-05-23T02:11:39;14.00;95.80
38265;DHT22;24062;47.480;8.768;2023-05-23T02:14:06;13.90;95.90
38265;DHT22;24062;47.480;8.768;2023-05-23T02:16:33;13.90;96.00
38265;DHT22;24062;47.480;8.768;2023-05-23T02:19:02;13.90;96.10
38265;DHT22;24062;47.480;8.768;2023-05-23T02:21:29;13.90;96.30
38265;DHT22;24062;47.480;8.768;2023-05-23T02:23:57;13.90;96.50
38265;DHT22;24062;47.480;8.768;2023-05-23T02:26:23;13.80;96.90
38265;DHT22;24062;47.480;8.768;2023-05-23T02:28:52;13.70;97.10
38265;DHT22;24062;47.480;8.768;2023-05-23T02:31:19;13.80;97.40
38265;DHT22;24062;47.480;8.768;2023-05-23T02:33:46;13.80;97.50
38265;DHT22;24062;47.480;8.768;2023-05-23T02:36:15;13.70;97.60
38265;DHT22;24062;47.480;8.768;2023-05-23T02:38:41;13.80;97.60
38265;DHT22;24062;47.480;8.768;2023-05-23T02:41:08;13.80;97.50
38265;DHT22;24062;47.480;8.768;2023-05-23T02:43:35;13.80;97.60
38265;DHT22;24062;47.480;8.768;2023-05-23T02:46:02;13.80;97.70
38265;DHT22;24062;47.480;8.768;2023-05-23T02:48:29;13.80;97.80
38265;DHT22;24062;47.480;8.768;2023-05-23T02:50:56;13.80;97.90
38265;DHT22;24062;47.480;8.768;2023-05-23T02:53:25;13.70;98.20
38265;DHT22;24062;47.480;8.768;2023-05-23T02:55:52;13.70;98.40
38265;DHT22;24062;47.480;8.768;2023-05-23T02:58:19;13.70;98.60
38265;DHT22;24062;47.480;8.768;2023-05-23T03:00:46;13.70;98.80
38265;DHT22;24062;47.480;8.768;2023-05-23T03:03:13;13.80;99.00
38265;DHT22;24062;47.480;8.768;2023-05-23T03:05:41;13.90;99.00
38265;DHT22;24062;47.480;8.768;2023-05-23T03:08:08;14.00;98.90
38265;DHT22;24062;47.480;8.768;2023-05-23T03:10:36;14.00;98.80
38265;DHT22;24062;47.480;8.768;2023-05-23T03:13:03;14.00;98.90
38265;DHT22;24062;47.480;8.768;2023-05-23T03:15:30;13.90;99.00
38265;DHT22;24062;47.480;8.768;2023-05-23T03:17:57;13.90;99.40
38265;DHT22;24062;47.480;8.768;2023-05-23T03:20:24;13.90;99.60
38265;DHT22;24062;47.480;8.768;2023-05-23T03:22:51;14.00;99.70
38265;DHT22;24062;47.480;8.768;2023-05-23T03:25:18;14.10;99.70
38265;DHT22;24062;47.480;8.768;2023-05-23T03:27:46;14.10;99.50
38265;DHT22;24062;47.480;8.768;2023-05-23T03:30:13;14.10;99.50
38265;DHT22;24062;47.480;8.768;2023-05-23T03:32:40;14.00;99.50
38265;DHT22;24062;47.480;8.768;2023-05-23T03:35:07;14.00;99.90
38265;DHT22;24062;47.480;8.768;2023-05-23T03:37:34;14.00;99.90
38265;DHT22;24062;47.480;8.768;2023-05-23T03:40:01;14.00;99.90
38265;DHT22;24062;47.480;8.768;2023-05-23T03:42:29;14.10;99.90
38265;DHT22;24062;47.480;8.768;2023-05-23T03:44:57;14.20;99.90
38265;DHT22;24062;47.480;8.768;2023-05-23T03:47:24;14.20;99.90
38265;DHT22;24062;47.480;8.768;2023-05-23T03:49:51;14.30;99.90
38265;DHT22;24062;47.480;8.768;2023-05-23T03:52:18;14.30;99.90
38265;DHT22;24062;47.480;8.768;2023-05-23T03:54:45;14.30;99.90
38265;DHT22;24062;47.480;8.768;2023-05-23T03:57:11;14.20;99.90
38265;DHT22;24062;47.480;8.768;2023-05-23T03:59:38;14.20;99.90
38265;DHT22;24062;47.480;8.768;2023-05-23T04:02:07;14.30;99.90
38265;DHT22;24062;47.480;8.768;2023-05-23T04:04:34;14.40;99.90
38265;DHT22;24062;47.480;8.768;2023-05-23T04:07:00;14.50;99.90
38265;DHT22;24062;47.480;8.768;2023-05-23T04:09:30;14.60;99.90
38265;DHT22;24062;47.480;8.768;2023-05-23T04:11:57;14.70;99.90
38265;DHT22;24062;47.480;8.768;2023-05-23T04:14:24;14.80;99.90
38265;DHT22;24062;47.480;8.768;2023-05-23T04:16:50;14.80;99.90
38265;DHT22;24062;47.480;8.768;2023-05-23T04:19:19;14.90;99.90
38265;DHT22;24062;47.480;8.768;2023-05-23T04:21:46;15.00;99.90
38265;DHT22;24062;47.480;8.768;2023-05-23T04:24:13;15.00;99.90
38265;DHT22;24062;47.480;8.768;2023-05-23T04:26:40;15.00;99.90
38265;DHT22;24062;47.480;8.768;2023-05-23T04:29:07;15.00;99.90
38265;DHT22;24062;47.480;8.768;2023-05-23T04:31:36;15.10;99.90
38265;DHT22;24062;47.480;8.768;2023-05-23T04:34:03;15.20;99.90
38265;DHT22;24062;47.480;8.768;2023-05-23T04:36:32;15.20;99.90
38265;DHT22;24062;47.480;8.768;2023-05-23T04:39:02;15.30;99.90
38265;DHT22;24062;47.480;8.768;2023-05-23T04:41:29;15.40;99.90
38265;DHT22;24062;47.480;8.768;2023-05-23T04:43:56;15.50;99.90
38265;DHT22;24062;47.480;8.768;2023-05-23T04:46:23;15.60;99.90
38265;DHT22;24062;47.480;8.768;2023-05-23T04:48:52;15.70;99.90
38265;DHT22;24062;47.480;8.768;2023-05-23T04:51:19;15.70;99.90
38265;DHT22;24062;47.480;8.768;2023-05-23T04:53:49;15.80;99.90
38265;DHT22;24062;47.480;8.768;2023-05-23T04:56:16;15.80;99.90
38265;DHT22;24062;47.480;8.768;2023-05-23T04:58:45;15.80;99.90
38265;DHT22;24062;47.480;8.768;2023-05-23T05:01:12;15.80;99.90
38265;DHT22;24062;47.480;8.768;2023-05-23T05:03:40;15.80;99.90
38265;DHT22;24062;47.480;8.768;2023-05-23T05:06:07;15.80;99.90
38265;DHT22;24062;47.480;8.768;2023-05-23T05:08:34;15.80;99.90
38265;DHT22;24062;47.480;8.768;2023-05-23T05:11:03;15.90;99.90
38265;DHT22;24062;47.480;8.768;2023-05-23T05:13:30;16.00;99.90
38265;DHT22;24062;47.480;8.768;2023-05-23T05:15:57;16.20;99.90
38265;DHT22;24062;47.480;8.768;2023-05-23T05:18:25;16.30;99.90
38265;DHT22;24062;47.480;8.768;2023-05-23T05:20:52;16.50;99.90
38265;DHT22;24062;47.480;8.768;2023-05-23T05:23:24;16.60;99.90
38265;DHT22;24062;47.480;8.768;2023-05-23T05:25:53;16.70;99.90
38265;DHT22;24062;47.480;8.768;2023-05-23T05:28:22;16.80;99.90
38265;DHT22;24062;47.480;8.768;2023-05-23T05:30:49;16.90;99.90
38265;DHT22;24062;47.480;8.768;2023-05-23T05:33:18;17.00;99.90
38265;DHT22;24062;47.480;8.768;2023-05-23T05:35:48;17.10;99.90
38265;DHT22;24062;47.480;8.768;2023-05-23T05:38:15;17.20;99.90
38265;DHT22;24062;47.480;8.768;2023-05-23T05:40:42;17.30;99.90
38265;DHT22;24062;47.480;8.768;2023-05-23T05:43:09;17.40;99.90
38265;DHT22;24062;47.480;8.768;2023-05-23T05:45:38;17.40;99.90
38265;DHT22;24062;47.480;8.768;2023-05-23T05:48:05;17.50;99.80
38265;DHT22;24062;47.480;8.768;2023-05-23T05:50:32;17.50;99.60
38265;DHT22;24062;47.480;8.768;2023-05-23T05:52:59;17.50;99.90
38265;DHT22;24062;47.480;8.768;2023-05-23T05:55:26;17.50;99.90
38265;DHT22;24062;47.480;8.768;2023-05-23T05:57:53;17.50;99.80
38265;DHT22;24062;47.480;8.768;2023-05-23T06:00:20;17.60;99.40
38265;DHT22;24062;47.480;8.768;2023-05-23T06:02:48;17.70;99.50
38265;DHT22;24062;47.480;8.768;2023-05-23T06:05:16;17.80;99.30
38265;DHT22;24062;47.480;8.768;2023-05-23T06:07:43;18.00;99.40
38265;DHT22;24062;47.480;8.768;2023-05-23T06:10:10;18.20;99.10
38265;DHT22;24062;47.480;8.768;2023-05-23T06:12:38;18.50;99.40
38265;DHT22;24062;47.480;8.768;2023-05-23T06:15:06;18.80;98.40
38265;DHT22;24062;47.480;8.768;2023-05-23T06:17:34;19.10;98.20
38265;DHT22;24062;47.480;8.768;2023-05-23T06:20:02;19.20;97.30
38265;DHT22;24062;47.480;8.768;2023-05-23T06:22:29;19.20;96.30
38265;DHT22;24062;47.480;8.768;2023-05-23T06:24:56;19.20;95.90
38265;DHT22;24062;47.480;8.768;2023-05-23T06:27:23;19.20;95.30
38265;DHT22;24062;47.480;8.768;2023-05-23T06:29:50;19.30;95.70
38265;DHT22;24062;47.480;8.768;2023-05-23T06:32:17;19.40;95.30
38265;DHT22;24062;47.480;8.768;2023-05-23T06:34:44;19.70;95.50
38265;DHT22;24062;47.480;8.768;2023-05-23T06:37:12;19.90;95.30
38265;DHT22;24062;47.480;8.768;2023-05-23T06:39:39;20.00;94.70
38265;DHT22;24062;47.480;8.768;2023-05-23T06:42:06;20.00;93.10
38265;DHT22;24062;47.480;8.768;2023-05-23T06:44:33;19.80;93.00
38265;DHT22;24062;47.480;8.768;2023-05-23T06:47:00;19.70;93.40
38265;DHT22;24062;47.480;8.768;2023-05-23T06:49:27;19.70;93.10
38265;DHT22;24062;47.480;8.768;2023-05-23T06:51:54;19.70;93.30
38265;DHT22;24062;47.480;8.768;2023-05-23T06:54:22;19.90;93.50
38265;DHT22;24062;47.480;8.768;2023-05-23T06:56:49;20.10;93.50
38265;DHT22;24062;47.480;8.768;2023-05-23T06:59:16;20.30;92.40
38265;DHT22;24062;47.480;8.768;2023-05-23T07:01:43;20.50;92.90
38265;DHT22;24062;47.480;8.768;2023-05-23T07:04:10;20.60;92.40
38265;DHT22;24062;47.480;8.768;2023-05-23T07:06:38;20.60;92.00
38265;DHT22;24062;47.480;8.768;2023-05-23T07:09:05;20.60;91.60
38265;DHT22;24062;47.480;8.768;2023-05-23T07:11:33;20.60;91.40
38265;DHT22;24062;47.480;8.768;2023-05-23T07:14:01;20.70;91.50
38265;DHT22;24062;47.480;8.768;2023-05-23T07:16:28;20.70;91.40
38265;DHT22;24062;47.480;8.768;2023-05-23T07:18:55;20.80;91.20
38265;DHT22;24062;47.480;8.768;2023-05-23T07:21:22;20.70;90.90
38265;DHT22;24062;47.480;8.768;2023-05-23T07:23:49;20.60;91.00
38265;DHT22;24062;47.480;8.768;2023-05-23T07:26:16;20.50;90.70
38265;DHT22;24062;47.480;8.768;2023-05-23T07:28:44;20.30;90.50
38265;DHT22;24062;47.480;8.768;2023-05-23T07:31:11;20.20;90.30
38265;DHT22;24062;47.480;8.768;2023-05-23T07:33:38;20.10;90.50
38265;DHT22;24062;47.480;8.768;2023-05-23T07:36:05;20.00;90.40
38265;DHT22;24062;47.480;8.768;2023-05-23T07:38:32;19.90;90.10
38265;DHT22;24062;47.480;8.768;2023-05-23T07:40:59;19.80;90.20
38265;DHT22;24062;47.480;8.768;2023-05-23T07:43:26;19.80;90.00
38265;DHT22;24062;47.480;8.768;2023-05-23T07:45:54;19.60;90.20
38265;DHT22;24062;47.480;8.768;2023-05-23T07:48:21;19.60;90.30
38265;DHT22;24062;47.480;8.768;2023-05-23T07:50:48;19.50;90.10
38265;DHT22;24062;47.480;8.768;2023-05-23T07:53:19;19.50;90.10
38265;DHT22;24062;47.480;8.768;2023-05-23T07:55:46;19.40;90.00
38265;DHT22;24062;47.480;8.768;2023-05-23T07:58:13;19.40;90.10
38265;DHT22;24062;47.480;8.768;2023-05-23T08:00:40;19.40;90.10
38265;DHT22;24062;47.480;8.768;2023-05-23T08:03:10;19.50;90.20
38265;DHT22;24062;47.480;8.768;2023-05-23T08:05:37;19.50;90.20
38265;DHT22;24062;47.480;8.768;2023-05-23T08:08:04;19.60;90.30
38265;DHT22;24062;47.480;8.768;2023-05-23T08:10:31;19.70;90.50
38265;DHT22;24062;47.480;8.768;2023-05-23T08:12:58;19.80;90.30
38265;DHT22;24062;47.480;8.768;2023-05-23T08:15:31;19.90;90.20
38265;DHT22;24062;47.480;8.768;2023-05-23T08:17:58;19.90;90.10
38265;DHT22;24062;47.480;8.768;2023-05-23T08:20:26;19.90;90.10
38265;DHT22;24062;47.480;8.768;2023-05-23T08:22:57;19.90;90.30
38265;DHT22;24062;47.480;8.768;2023-05-23T08:25:25;20.10;89.90
38265;DHT22;24062;47.480;8.768;2023-05-23T08:27:55;20.30;90.10
38265;DHT22;24062;47.480;8.768;2023-05-23T08:30:22;20.60;90.50
38265;DHT22;24062;47.480;8.768;2023-05-23T08:32:50;20.90;90.20
38265;DHT22;24062;47.480;8.768;2023-05-23T08:35:18;21.10;89.40
38265;DHT22;24062;47.480;8.768;2023-05-23T08:37:46;21.30;88.10
38265;DHT22;24062;47.480;8.768;2023-05-23T08:40:18;21.50;87.90
38265;DHT22;24062;47.480;8.768;2023-05-23T08:42:45;21.70;88.00
38265;DHT22;24062;47.480;8.768;2023-05-23T08:45:13;21.80;86.80
38265;DHT22;24062;47.480;8.768;2023-05-23T08:47:42;21.90;86.10
38265;DHT22;24062;47.480;8.768;2023-05-23T08:50:11;22.00;86.00
38265;DHT22;24062;47.480;8.768;2023-05-23T08:52:42;22.10;86.10
38265;DHT22;24062;47.480;8.768;2023-05-23T08:55:12;22.20;83.80
38265;DHT22;24062;47.480;8.768;2023-05-23T08:57:39;22.20;83.30
38265;DHT22;24062;47.480;8.768;2023-05-23T09:00:09;22.40;84.20
38265;DHT22;24062;47.480;8.768;2023-05-23T09:02:39;22.60;83.30
38265;DHT22;24062;47.480;8.768;2023-05-23T09:05:08;22.80;83.40
38265;DHT22;24062;47.480;8.768;2023-05-23T09:07:36;23.10;83.60
38265;DHT22;24062;47.480;8.768;2023-05-23T09:10:04;23.20;81.50
38265;DHT22;24062;47.480;8.768;2023-05-23T09:12:34;23.20;81.50
38265;DHT22;24062;47.480;8.768;2023-05-23T09:15:02;23.10;80.90
38265;DHT22;24062;47.480;8.768;2023-05-23T09:17:30;22.90;79.30
38265;DHT22;24062;47.480;8.768;2023-05-23T09:19:58;22.80;77.80
38265;DHT22;24062;47.480;8.768;2023-05-23T09:22:25;22.60;78.10
38265;DHT22;24062;47.480;8.768;2023-05-23T09:24:53;22.50;78.60
38265;DHT22;24062;47.480;8.768;2023-05-23T09:27:21;22.50;77.40
38265;DHT22;24062;47.480;8.768;2023-05-23T09:29:49;22.50;77.40
38265;DHT22;24062;47.480;8.768;2023-05-23T09:32:17;22.70;77.70
38265;DHT22;24062;47.480;8.768;2023-05-23T09:35:00;22.90;76.30
38265;DHT22;24062;47.480;8.768;2023-05-23T09:37:29;23.00;76.30
38265;DHT22;24062;47.480;8.768;2023-05-23T09:39:58;23.20;75.60
38265;DHT22;24062;47.480;8.768;2023-05-23T09:42:30;23.20;75.60
38265;DHT22;24062;47.480;8.768;2023-05-23T09:44:59;23.40;74.70
38265;DHT22;24062;47.480;8.768;2023-05-23T09:47:26;23.40;74.90
38265;DHT22;24062;47.480;8.768;2023-05-23T09:49:54;23.60;74.90
38265;DHT22;24062;47.480;8.768;2023-05-23T09:52:21;23.80;74.80
38265;DHT22;24062;47.480;8.768;2023-05-23T09:54:48;23.90;75.20
38265;DHT22;24062;47.480;8.768;2023-05-23T09:57:15;24.10;74.80
38265;DHT22;24062;47.480;8.768;2023-05-23T09:59:51;24.30;74.60
38265;DHT22;24062;47.480;8.768;2023-05-23T10:02:35;24.60;74.40
38265;DHT22;24062;47.480;8.768;2023-05-23T10:05:08;24.70;72.70
38265;DHT22;24062;47.480;8.768;2023-05-23T10:07:36;24.80;72.30
38265;DHT22;24062;47.480;8.768;2023-05-23T10:10:06;24.90;72.70
38265;DHT22;24062;47.480;8.768;2023-05-23T10:12:41;25.10;71.90
38265;DHT22;24062;47.480;8.768;2023-05-23T10:15:13;25.30;69.90
38265;DHT22;24062;47.480;8.768;2023-05-23T10:17:59;25.10;67.60
38265;DHT22;24062;47.480;8.768;2023-05-23T10:20:29;24.70;66.60
38265;DHT22;24062;47.480;8.768;2023-05-23T10:22:59;24.20;67.50
38265;DHT22;24062;47.480;8.768;2023-05-23T10:25:26;24.00;67.70
38265;DHT22;24062;47.480;8.768;2023-05-23T10:27:54;23.90;67.80
38265;DHT22;24062;47.480;8.768;2023-05-23T10:30:24;23.90;68.10
38265;DHT22;24062;47.480;8.768;2023-05-23T10:32:51;24.00;67.70
38265;DHT22;24062;47.480;8.768;2023-05-23T10:35:24;24.10;68.10
38265;DHT22;24062;47.480;8.768;2023-05-23T10:38:00;24.30;68.60
38265;DHT22;24062;47.480;8.768;2023-05-23T10:40:33;24.50;67.00
38265;DHT22;24062;47.480;8.768;2023-05-23T10:43:09;24.60;68.40
38265;DHT22;24062;47.480;8.768;2023-05-23T10:45:39;24.80;67.30
38265;DHT22;24062;47.480;8.768;2023-05-23T10:48:20;24.90;66.40
38265;DHT22;24062;47.480;8.768;2023-05-23T10:51:03;24.90;65.80
38265;DHT22;24062;47.480;8.768;2023-05-23T10:53:31;25.40;66.50
38265;DHT22;24062;47.480;8.768;2023-05-23T10:56:00;25.60;64.90
38265;DHT22;24062;47.480;8.768;2023-05-23T10:58:29;25.90;67.10
38265;DHT22;24062;47.480;8.768;2023-05-23T11:00:59;26.50;67.00
38265;DHT22;24062;47.480;8.768;2023-05-23T11:03:33;26.90;62.80
38265;DHT22;24062;47.480;8.768;2023-05-23T11:06:03;26.90;63.60
38265;DHT22;24062;47.480;8.768;2023-05-23T11:08:37;27.30;64.60
38265;DHT22;24062;47.480;8.768;2023-05-23T11:11:05;27.60;63.90
38265;DHT22;24062;47.480;8.768;2023-05-23T11:13:57;27.60;62.80
38265;DHT22;24062;47.480;8.768;2023-05-23T11:16:29;27.60;59.50
38265;DHT22;24062;47.480;8.768;2023-05-23T11:19:22;27.30;59.30
38265;DHT22;24062;47.480;8.768;2023-05-23T11:21:54;27.30;61.40
38265;DHT22;24062;47.480;8.768;2023-05-23T11:24:21;27.80;59.30
38265;DHT22;24062;47.480;8.768;2023-05-23T11:26:52;28.00;60.50
38265;DHT22;24062;47.480;8.768;2023-05-23T11:29:21;28.60;60.10
38265;DHT22;24062;47.480;8.768;2023-05-23T11:31:49;29.10;60.40
38265;DHT22;24062;47.480;8.768;2023-05-23T11:34:16;29.70;56.40
38265;DHT22;24062;47.480;8.768;2023-05-23T11:36:44;29.80;57.50
38265;DHT22;24062;47.480;8.768;2023-05-23T11:39:12;29.90;55.70
38265;DHT22;24062;47.480;8.768;2023-05-23T11:41:41;29.60;54.30
38265;DHT22;24062;47.480;8.768;2023-05-23T11:44:11;29.00;53.30
38265;DHT22;24062;47.480;8.768;2023-05-23T11:46:38;28.40;52.90
38265;DHT22;24062;47.480;8.768;2023-05-23T11:49:10;27.80;54.10
38265;DHT22;24062;47.480;8.768;2023-05-23T11:51:37;27.70;54.70
38265;DHT22;24062;47.480;8.768;2023-05-23T11:54:04;27.60;54.70
38265;DHT22;24062;47.480;8.768;2023-05-23T11:56:38;27.60;54.70
38265;DHT22;24062;47.480;8.768;2023-05-23T11:59:05;27.50;54.60
38265;DHT22;24062;47.480;8.768;2023-05-23T12:01:35;27.60;55.00
38265;DHT22;24062;47.480;8.768;2023-05-23T12:04:08;27.50;54.10
38265;DHT22;24062;47.480;8.768;2023-05-23T12:06:37;27.20;54.20
38265;DHT22;24062;47.480;8.768;2023-05-23T12:09:05;27.20;54.80
38265;DHT22;24062;47.480;8.768;2023-05-23T12:11:34;27.20;55.00
38265;DHT22;24062;47.480;8.768;2023-05-23T12:14:01;27.10;54.60
38265;DHT22;24062;47.480;8.768;2023-05-23T12:16:31;26.90;53.80
38265;DHT22;24062;47.480;8.768;2023-05-23T12:18:59;26.90;54.10
38265;DHT22;24062;47.480;8.768;2023-05-23T12:21:39;26.60;54.00
38265;DHT22;24062;47.480;8.768;2023-05-23T12:24:13;25.90;54.60
38265;DHT22;24062;47.480;8.768;2023-05-23T12:26:47;25.30;53.70
38265;DHT22;24062;47.480;8.768;2023-05-23T12:29:14;25.00;53.70
38265;DHT22;24062;47.480;8.768;2023-05-23T12:31:42;24.70;53.50
38265;DHT22;24062;47.480;8.768;2023-05-23T12:34:10;24.60;53.70
38265;DHT22;24062;47.480;8.768;2023-05-23T12:36:37;24.30;53.40
38265;DHT22;24062;47.480;8.768;2023-05-23T12:39:05;24.10;54.20
38265;DHT22;24062;47.480;8.768;2023-05-23T12:41:32;24.00;54.00
38265;DHT22;24062;47.480;8.768;2023-05-23T12:44:01;23.90;54.60
38265;DHT22;24062;47.480;8.768;2023-05-23T12:46:28;23.80;54.50
38265;DHT22;24062;47.480;8.768;2023-05-23T12:48:55;23.90;55.30
38265;DHT22;24062;47.480;8.768;2023-05-23T12:51:22;24.10;55.30
38265;DHT22;24062;47.480;8.768;2023-05-23T12:53:50;24.20;55.50
38265;DHT22;24062;47.480;8.768;2023-05-23T12:56:17;24.30;55.90
38265;DHT22;24062;47.480;8.768;2023-05-23T12:58:43;24.30;55.80
38265;DHT22;24062;47.480;8.768;2023-05-23T13:01:12;24.40;55.90
38265;DHT22;24062;47.480;8.768;2023-05-23T13:03:39;24.30;55.50
38265;DHT22;24062;47.480;8.768;2023-05-23T13:06:06;24.10;55.50
38265;DHT22;24062;47.480;8.768;2023-05-23T13:08:33;23.90;55.50
38265;DHT22;24062;47.480;8.768;2023-05-23T13:11:00;23.70;55.70
38265;DHT22;24062;47.480;8.768;2023-05-23T13:13:27;23.40;56.00
38265;DHT22;24062;47.480;8.768;2023-05-23T13:15:55;23.20;56.30
38265;DHT22;24062;47.480;8.768;2023-05-23T13:18:23;23.10;56.90
38265;DHT22;24062;47.480;8.768;2023-05-23T13:20:50;23.00;57.50
38265;DHT22;24062;47.480;8.768;2023-05-23T13:23:17;22.90;57.60
38265;DHT22;24062;47.480;8.768;2023-05-23T13:25:44;22.90;58.00
38265;DHT22;24062;47.480;8.768;2023-05-23T13:28:11;22.90;58.20
38265;DHT22;24062;47.480;8.768;2023-05-23T13:30:38;22.90;58.40
38265;DHT22;24062;47.480;8.768;2023-05-23T13:33:05;22.90;58.60
38265;DHT22;24062;47.480;8.768;2023-05-23T13:35:33;22.90;58.50
38265;DHT22;24062;47.480;8.768;2023-05-23T13:38:00;22.90;58.80
38265;DHT22;24062;47.480;8.768;2023-05-23T13:40:27;22.90;58.70
38265;DHT22;24062;47.480;8.768;2023-05-23T13:42:54;23.00;59.30
38265;DHT22;24062;47.480;8.768;2023-05-23T13:45:21;23.10;59.40
38265;DHT22;24062;47.480;8.768;2023-05-23T13:47:49;23.10;59.50
38265;DHT22;24062;47.480;8.768;2023-05-23T13:50:16;23.20;59.50
38265;DHT22;24062;47.480;8.768;2023-05-23T13:52:45;23.20;59.60
38265;DHT22;24062;47.480;8.768;2023-05-23T13:55:12;23.30;60.00
38265;DHT22;24062;47.480;8.768;2023-05-23T13:57:39;23.30;60.00
38265;DHT22;24062;47.480;8.768;2023-05-23T14:00:06;23.50;60.80
38265;DHT22;24062;47.480;8.768;2023-05-23T14:02:34;23.90;61.20
38265;DHT22;24062;47.480;8.768;2023-05-23T14:05:01;24.50;60.90
38265;DHT22;24062;47.480;8.768;2023-05-23T14:07:28;25.00;61.10
38265;DHT22;24062;47.480;8.768;2023-05-23T14:09:56;25.40;60.60
38265;DHT22;24062;47.480;8.768;2023-05-23T14:12:24;25.90;60.10
38265;DHT22;24062;47.480;8.768;2023-05-23T14:14:51;26.30;60.00
38265;DHT22;24062;47.480;8.768;2023-05-23T14:17:18;26.50;58.90
38265;DHT22;24062;47.480;8.768;2023-05-23T14:19:45;26.40;58.30
38265;DHT22;24062;47.480;8.768;2023-05-23T14:22:12;26.20;57.90
38265;DHT22;24062;47.480;8.768;2023-05-23T14:24:39;26.00;57.80
38265;DHT22;24062;47.480;8.768;2023-05-23T14:27:08;26.00;58.30
38265;DHT22;24062;47.480;8.768;2023-05-23T14:29:35;26.10;58.10
38265;DHT22;24062;47.480;8.768;2023-05-23T14:32:02;25.90;58.00
38265;DHT22;24062;47.480;8.768;2023-05-23T14:34:29;25.80;58.60
38265;DHT22;24062;47.480;8.768;2023-05-23T14:36:56;25.80;58.50
38265;DHT22;24062;47.480;8.768;2023-05-23T14:39:22;26.10;58.80
38265;DHT22;24062;47.480;8.768;2023-05-23T14:41:50;26.20;58.40
38265;DHT22;24062;47.480;8.768;2023-05-23T14:44:18;26.40;58.00
38265;DHT22;24062;47.480;8.768;2023-05-23T14:46:45;26.60;58.60
38265;DHT22;24062;47.480;8.768;2023-05-23T14:49:14;27.50;58.80
38265;DHT22;24062;47.480;8.768;2023-05-23T14:51:41;29.40;59.10
38265;DHT22;24062;47.480;8.768;2023-05-23T14:54:08;30.80;56.00
38265;DHT22;24062;47.480;8.768;2023-05-23T14:56:35;31.90;55.70
38265;DHT22;24062;47.480;8.768;2023-05-23T14:59:03;31.60;52.90
38265;DHT22;24062;47.480;8.768;2023-05-23T15:01:31;30.80;52.40
38265;DHT22;24062;47.480;8.768;2023-05-23T15:03:58;30.80;53.80
38265;DHT22;24062;47.480;8.768;2023-05-23T15:06:25;30.80;52.50
38265;DHT22;24062;47.480;8.768;2023-05-23T15:08:52;30.60;52.00
38265;DHT22;24062;47.480;8.768;2023-05-23T15:11:19;31.60;53.70
38265;DHT22;24062;47.480;8.768;2023-05-23T15:13:46;33.50;52.10
38265;DHT22;24062;47.480;8.768;2023-05-23T15:16:13;34.90;51.80
38265;DHT22;24062;47.480;8.768;2023-05-23T15:18:41;36.10;50.00
38265;DHT22;24062;47.480;8.768;2023-05-23T15:21:09;36.90;49.80
38265;DHT22;24062;47.480;8.768;2023-05-23T15:23:36;38.30;48.70
38265;DHT22;24062;47.480;8.768;2023-05-23T15:26:03;39.80;47.20
38265;DHT22;24062;47.480;8.768;2023-05-23T15:28:30;40.70;45.40
38265;DHT22;24062;47.480;8.768;2023-05-23T15:30:57;41.50;43.90
38265;DHT22;24062;47.480;8.768;2023-05-23T15:33:24;41.60;43.00
38265;DHT22;24062;47.480;8.768;2023-05-23T15:35:53;41.60;41.70
38265;DHT22;24062;47.480;8.768;2023-05-23T15:38:20;42.00;41.90